createdAt,value
2022-09-01T00:00:38.503Z,9.02
2022-09-01T00:02:57.179Z,10.38
2022-09-01T00:05:15.085Z,9.50
2022-09-01T00:07:34.711Z,9.35
2022-09-01T00:09:53.516Z,9.88
2022-09-01T00:12:11.746Z,9.68
2022-09-01T00:14:31.870Z,9.25
2022-09-01T00:16:51.785Z,9.30
2022-09-01T00:19:09.715Z,9.65
2022-09-01T00:21:32.045Z,9.15
2022-09-01T00:23:50.052Z,8.35
2022-09-01T00:26:08.044Z,9.27
2022-09-01T00:28:28.744Z,9.70
2022-09-01T00:30:48.458Z,8.70
2022-09-01T00:33:06.776Z,8.60
2022-09-01T00:35:25.139Z,8.25
2022-09-01T00:37:43.323Z,8.45
2022-09-01T00:40:01.420Z,8.02
2022-09-01T00:42:19.822Z,8.82
2022-09-01T00:44:39.344Z,7.65
2022-09-01T00:46:57.732Z,7.97
2022-09-01T00:49:18.960Z,7.97
2022-09-01T00:51:38.819Z,7.30
2022-09-01T00:53:58.252Z,7.55
2022-09-01T00:56:16.928Z,7.78
2022-09-01T00:58:36.086Z,7.75
2022-09-01T01:00:54.265Z,7.53
2022-09-01T01:03:13.403Z,8.35
2022-09-01T01:05:34.901Z,7.53
2022-09-01T01:07:53.174Z,8.80
2022-09-01T01:10:13.206Z,8.35
2022-09-01T01:12:31.053Z,8.35
2022-09-01T01:14:52.883Z,8.55
2022-09-01T01:17:10.876Z,8.87
2022-09-01T01:20:04.872Z,8.80
2022-09-01T01:23:01.932Z,8.48
2022-09-01T01:25:22.650Z,9.10
2022-09-01T01:27:44.299Z,9.05
2022-09-01T01:30:03.561Z,9.05
2022-09-01T01:32:22.522Z,8.95
2022-09-01T01:34:42.714Z,9.35
2022-09-01T01:37:01.792Z,9.13
2022-09-01T01:39:25.489Z,9.98
2022-09-01T01:41:45.636Z,9.52
2022-09-01T01:44:05.703Z,9.05
2022-09-01T01:46:23.864Z,9.52
2022-09-01T01:48:43.401Z,9.57
2022-09-01T01:51:02.219Z,9.13
2022-09-01T01:53:21.067Z,9.65
2022-09-01T01:55:40.847Z,9.52
2022-09-01T01:58:00.025Z,9.80
2022-09-01T02:00:30.174Z,9.77
2022-09-01T02:02:52.502Z,10.15
2022-09-01T02:05:13.415Z,10.00
2022-09-01T02:07:33.782Z,9.75
2022-09-01T02:09:52.230Z,9.73
2022-09-01T02:12:15.878Z,9.23
2022-09-01T02:14:33.921Z,9.98
2022-09-01T02:16:54.009Z,9.30
2022-09-01T02:19:12.544Z,9.05
2022-09-01T02:21:30.666Z,9.10
2022-09-01T02:23:50.427Z,9.73
2022-09-01T02:26:18.258Z,9.07
2022-09-01T02:28:42.687Z,9.63
2022-09-01T02:31:02.518Z,8.95
2022-09-01T02:33:21.940Z,8.93
2022-09-01T02:35:40.436Z,8.98
2022-09-01T02:38:01.117Z,9.43
2022-09-01T02:40:19.875Z,9.18
2022-09-01T02:42:41.249Z,9.60
2022-09-01T02:44:59.488Z,9.10
2022-09-01T02:47:20.901Z,8.57
2022-09-01T02:49:40.918Z,8.82
2022-09-01T02:52:02.122Z,9.40
2022-09-01T02:54:24.783Z,8.68
2022-09-01T02:56:43.620Z,7.07
2022-09-01T02:59:03.473Z,6.88
2022-09-01T03:01:32.346Z,5.55
2022-09-01T03:03:54.100Z,6.30
2022-09-01T03:06:13.173Z,5.88
2022-09-01T03:08:37.073Z,5.95
2022-09-01T03:10:56.141Z,5.50
2022-09-01T03:13:24.298Z,5.53
2022-09-01T03:15:42.477Z,6.10
2022-09-01T03:18:02.000Z,5.90
2022-09-01T03:20:22.009Z,5.65
2022-09-01T03:22:40.158Z,6.03
2022-09-01T03:24:58.581Z,6.45
2022-09-01T03:27:16.734Z,6.88
2022-09-01T03:29:36.811Z,6.63
2022-09-01T03:31:55.142Z,6.18
2022-09-01T03:34:13.670Z,6.57
2022-09-01T03:36:37.593Z,6.40
2022-09-01T03:38:57.329Z,6.70
2022-09-01T03:41:18.346Z,7.00
2022-09-01T03:43:36.560Z,6.50
2022-09-01T03:45:56.927Z,6.20
2022-09-01T03:48:16.833Z,6.55
2022-09-01T03:50:34.868Z,6.75
2022-09-01T03:52:55.052Z,6.45
2022-09-01T03:55:13.221Z,6.53
2022-09-01T03:57:32.528Z,6.30
2022-09-01T03:59:52.428Z,6.47
2022-09-01T04:04:33.330Z,6.30
2022-09-01T04:06:52.515Z,6.30
2022-09-01T04:09:11.148Z,5.97
2022-09-01T04:11:32.598Z,5.93
2022-09-01T04:13:51.158Z,5.68
2022-09-01T04:16:37.530Z,6.07
2022-09-01T04:18:55.932Z,5.50
2022-09-01T04:21:15.932Z,5.20
2022-09-01T04:23:35.137Z,5.55
2022-09-01T04:26:00.068Z,5.28
2022-09-01T04:28:25.196Z,5.60
2022-09-01T04:30:47.199Z,5.47
2022-09-01T04:33:10.627Z,5.60
2022-09-01T04:35:32.668Z,5.78
2022-09-01T04:37:56.543Z,6.25
2022-09-01T04:40:15.995Z,6.15
2022-09-01T04:42:35.339Z,6.65
2022-09-01T04:44:54.715Z,5.78
2022-09-01T04:47:16.822Z,5.72
2022-09-01T04:49:37.658Z,5.55
2022-09-01T04:51:56.425Z,5.82
2022-09-01T04:54:16.466Z,6.20
2022-09-01T04:56:37.487Z,6.18
2022-09-01T04:59:08.365Z,5.63
2022-09-01T05:01:28.126Z,6.07
2022-09-01T05:03:46.607Z,6.05
2022-09-01T05:06:06.231Z,5.88
2022-09-01T05:08:25.176Z,6.13
2022-09-01T05:10:53.405Z,5.82
2022-09-01T05:13:23.852Z,6.20
2022-09-01T05:15:46.896Z,5.80
2022-09-01T05:18:10.329Z,5.70
2022-09-01T05:22:48.298Z,5.60
2022-09-01T05:25:13.587Z,5.72
2022-09-01T05:27:34.875Z,5.80
2022-09-01T05:29:53.338Z,6.10
2022-09-01T05:32:12.739Z,6.30
2022-09-01T05:34:32.862Z,6.03
2022-09-01T05:36:50.914Z,5.97
2022-09-01T05:39:12.348Z,6.45
2022-09-01T05:41:30.357Z,6.70
2022-09-01T05:43:55.091Z,6.03
2022-09-01T05:46:17.285Z,6.68
2022-09-01T05:48:40.452Z,7.57
2022-09-01T05:51:00.126Z,6.68
2022-09-01T05:53:18.200Z,6.60
2022-09-01T05:55:40.545Z,7.22
2022-09-01T05:57:59.152Z,6.88
2022-09-01T06:00:18.394Z,6.50
2022-09-01T06:02:40.335Z,5.95
2022-09-01T06:05:00.128Z,6.65
2022-09-01T06:07:26.511Z,6.60
2022-09-01T06:09:48.098Z,6.40
2022-09-01T06:12:18.670Z,7.35
2022-09-01T06:14:37.195Z,7.15
2022-09-01T06:16:55.150Z,7.07
2022-09-01T06:19:13.378Z,6.82
2022-09-01T06:23:54.935Z,7.15
2022-09-01T06:26:19.456Z,6.82
2022-09-01T06:28:41.747Z,7.32
2022-09-01T06:31:00.231Z,7.60
2022-09-01T06:33:19.788Z,6.85
2022-09-01T06:35:39.462Z,7.53
2022-09-01T06:37:59.442Z,6.80
2022-09-01T06:40:27.162Z,7.90
2022-09-01T06:42:53.245Z,7.88
2022-09-01T06:45:11.965Z,7.55
2022-09-01T06:47:31.239Z,7.85
2022-09-01T06:49:53.563Z,7.63
2022-09-01T06:52:14.103Z,7.07
2022-09-01T06:54:35.132Z,6.78
2022-09-01T06:56:53.654Z,5.93
2022-09-01T06:59:15.949Z,6.05
2022-09-01T07:01:39.704Z,6.00
2022-09-01T07:03:58.596Z,5.78
2022-09-01T07:09:38.594Z,5.55
2022-09-01T07:12:25.133Z,5.65
2022-09-01T07:17:24.703Z,5.38
2022-09-01T07:19:49.738Z,5.15
2022-09-01T07:22:08.423Z,4.55
2022-09-01T07:24:31.891Z,4.38
2022-09-01T07:27:16.217Z,5.65
2022-09-01T07:29:37.035Z,5.00
2022-09-01T07:38:48.111Z,3.78
2022-09-01T07:39:55.062Z,4.57
2022-09-01T07:45:25.929Z,4.57
2022-09-01T07:47:55.641Z,3.85
2022-09-01T07:52:55.120Z,4.93
2022-09-01T07:55:14.308Z,4.22
2022-09-01T07:57:32.588Z,4.25
2022-09-01T07:59:55.721Z,4.10
2022-09-01T08:02:30.539Z,4.22
2022-09-01T08:04:49.506Z,4.25
2022-09-01T08:07:15.399Z,3.65
2022-09-01T08:09:38.545Z,4.80
2022-09-01T08:12:04.697Z,3.70
2022-09-01T08:14:25.854Z,3.65
2022-09-01T08:16:59.151Z,3.88
2022-09-01T08:19:22.251Z,3.85
2022-09-01T08:21:55.576Z,3.70
2022-09-01T08:24:19.832Z,3.75
2022-09-01T08:26:37.980Z,3.90
2022-09-01T08:28:57.147Z,3.80
2022-09-01T08:31:30.529Z,4.18
2022-09-01T08:33:51.157Z,3.42
2022-09-01T08:36:10.310Z,3.78
2022-09-01T08:38:29.210Z,3.60
2022-09-01T08:40:56.312Z,4.40
2022-09-01T08:43:20.124Z,2.92
2022-09-01T08:45:49.933Z,3.60
2022-09-01T08:49:16.144Z,3.10
2022-09-01T08:51:13.479Z,3.50
2022-09-01T08:53:50.904Z,4.63
2022-09-01T08:56:11.280Z,3.08
2022-09-01T08:58:32.179Z,3.15
2022-09-01T09:01:27.773Z,3.25
2022-09-01T09:04:06.548Z,3.38
2022-09-01T09:06:27.797Z,3.13
2022-09-01T09:08:53.996Z,3.40
2022-09-01T09:11:13.016Z,2.72
2022-09-01T09:13:49.922Z,3.10
2022-09-01T09:16:10.973Z,3.30
2022-09-01T09:18:39.915Z,3.00
2022-09-01T09:21:05.116Z,3.10
2022-09-01T09:23:29.478Z,3.10
2022-09-01T09:25:47.476Z,2.70
2022-09-01T09:28:05.994Z,3.50
2022-09-01T09:30:26.679Z,2.70
2022-09-01T09:33:16.057Z,2.75
2022-09-01T09:35:22.872Z,2.80
2022-09-01T09:37:40.855Z,2.90
2022-09-01T09:40:28.304Z,2.80
2022-09-01T09:42:55.250Z,3.63
2022-09-01T09:45:23.002Z,3.65
2022-09-01T09:47:44.485Z,3.45
2022-09-01T09:50:23.220Z,2.35
2022-09-01T09:52:41.142Z,5.03
2022-09-01T09:55:01.140Z,3.00
2022-09-01T09:57:19.842Z,3.10
2022-09-01T09:59:57.564Z,3.17
2022-09-01T10:02:33.494Z,2.80
2022-09-01T10:04:55.769Z,2.67
2022-09-01T10:07:26.173Z,4.00
2022-09-01T10:09:44.453Z,2.63
2022-09-01T10:12:02.905Z,3.00
2022-09-01T10:14:35.583Z,2.78
2022-09-01T10:17:07.239Z,3.20
2022-09-01T10:19:32.306Z,3.22
2022-09-01T10:21:53.009Z,3.03
2022-09-01T10:24:27.029Z,3.20
2022-09-01T10:26:47.348Z,2.78
2022-09-01T10:29:11.990Z,2.20
2022-09-01T10:31:32.787Z,2.42
2022-09-01T10:33:51.051Z,2.45
2022-09-01T10:36:09.503Z,3.10
2022-09-01T10:38:28.844Z,2.58
2022-09-01T10:40:51.392Z,2.45
2022-09-01T10:43:27.470Z,2.07
2022-09-01T10:45:48.794Z,2.40
2022-09-01T10:48:30.493Z,2.42
2022-09-01T10:50:49.754Z,2.40
2022-09-01T10:53:08.466Z,2.53
2022-09-01T10:55:29.245Z,2.55
2022-09-01T10:59:31.278Z,3.10
2022-09-01T11:03:31.510Z,2.58
2022-09-01T11:08:29.607Z,3.35
2022-09-01T11:10:54.583Z,2.90
2022-09-01T11:13:21.910Z,2.80
2022-09-01T11:18:49.864Z,3.28
2022-09-01T11:21:39.232Z,3.35
2022-09-01T11:24:16.288Z,3.50
2022-09-01T11:27:22.642Z,3.50
2022-09-01T11:30:01.304Z,3.50
2022-09-01T11:32:20.429Z,3.33
2022-09-01T11:34:43.303Z,3.45
2022-09-01T11:37:01.782Z,3.03
2022-09-01T11:39:20.885Z,3.80
2022-09-01T11:41:43.063Z,3.40
2022-09-01T11:44:01.990Z,3.10
2022-09-01T11:46:26.522Z,3.85
2022-09-01T11:48:52.143Z,3.20
2022-09-01T11:51:14.643Z,3.22
2022-09-01T11:55:53.117Z,3.35
2022-09-01T11:58:31.428Z,3.67
2022-09-01T12:01:12.367Z,2.58
2022-09-01T12:03:31.265Z,3.28
2022-09-01T12:05:55.520Z,3.00
2022-09-01T12:08:58.076Z,2.30
2022-09-01T12:11:30.416Z,2.50
2022-09-01T12:13:57.821Z,2.50
2022-09-01T12:16:24.724Z,2.20
2022-09-01T12:19:11.989Z,2.53
2022-09-01T12:24:54.112Z,2.03
2022-09-01T12:27:12.436Z,2.63
2022-09-01T12:29:32.420Z,2.75
2022-09-01T12:31:52.879Z,2.85
2022-09-01T12:34:36.873Z,3.30
2022-09-01T12:37:06.025Z,2.63
2022-09-01T12:39:25.116Z,2.10
2022-09-01T12:41:43.359Z,2.47
2022-09-01T12:44:20.460Z,2.00
2022-09-01T12:46:47.054Z,2.25
2022-09-01T12:49:19.110Z,2.70
2022-09-01T12:51:37.734Z,2.22
2022-09-01T12:54:04.486Z,2.30
2022-09-01T12:56:28.225Z,2.50
2022-09-01T12:58:48.787Z,2.85
2022-09-01T13:01:16.480Z,2.33
2022-09-01T13:03:35.835Z,2.55
2022-09-01T13:06:01.622Z,2.30
2022-09-01T13:08:21.320Z,2.55
2022-09-01T13:10:54.082Z,2.58
2022-09-01T13:13:12.896Z,2.15
2022-09-01T13:15:34.739Z,3.03
2022-09-01T13:17:53.435Z,2.77
2022-09-01T13:20:12.420Z,2.88
2022-09-01T13:22:30.238Z,1.92
2022-09-01T13:24:48.770Z,2.03
2022-09-01T13:27:22.974Z,2.03
2022-09-01T13:29:45.996Z,1.95
2022-09-01T13:32:20.930Z,2.33
2022-09-01T13:34:41.410Z,2.05
2022-09-01T13:36:59.898Z,3.40
2022-09-01T13:39:18.782Z,2.35
2022-09-01T13:41:36.893Z,2.13
2022-09-01T13:43:55.004Z,2.00
2022-09-01T13:46:12.937Z,1.90
2022-09-01T13:51:14.935Z,1.83
2022-09-01T13:53:34.003Z,2.15
2022-09-01T13:55:52.010Z,2.38
2022-09-01T13:58:11.097Z,2.30
2022-09-01T14:00:32.133Z,2.20
2022-09-01T14:02:53.393Z,2.33
2022-09-01T14:05:12.309Z,2.03
2022-09-01T14:07:32.850Z,2.00
2022-09-01T14:09:50.726Z,2.70
2022-09-01T14:12:08.668Z,2.53
2022-09-01T14:14:27.287Z,2.22
2022-09-01T14:16:46.690Z,2.05
2022-09-01T14:19:05.235Z,1.98
2022-09-01T14:21:24.398Z,2.30
2022-09-01T14:23:48.981Z,2.30
2022-09-01T14:26:10.134Z,2.75
2022-09-01T14:28:28.126Z,2.40
2022-09-01T14:30:46.588Z,2.40
2022-09-01T14:33:24.384Z,2.47
2022-09-01T14:35:43.873Z,2.70
2022-09-01T14:38:03.004Z,2.20
2022-09-01T14:40:22.955Z,2.38
2022-09-01T14:42:40.909Z,2.15
2022-09-01T14:44:59.603Z,2.17
2022-09-01T14:47:19.401Z,2.35
2022-09-01T14:49:40.163Z,2.10
2022-09-01T14:52:13.653Z,2.17
2022-09-01T14:54:31.944Z,1.92
2022-09-01T14:59:28.533Z,1.77
2022-09-01T15:01:46.751Z,1.90
2022-09-01T15:04:04.941Z,1.85
2022-09-01T15:06:24.122Z,1.60
2022-09-01T15:08:42.777Z,1.70
2022-09-01T15:11:01.685Z,1.63
2022-09-01T15:13:20.807Z,1.73
2022-09-01T15:15:38.995Z,1.58
2022-09-01T15:17:57.640Z,1.55
2022-09-01T15:20:36.052Z,1.45
2022-09-01T15:22:54.139Z,1.80
2022-09-01T15:25:12.144Z,2.00
2022-09-01T15:27:30.358Z,1.50
2022-09-01T15:29:52.182Z,1.60
2022-09-01T15:32:20.738Z,1.35
2022-09-01T15:34:45.592Z,1.80
2022-09-01T15:37:09.152Z,2.22
2022-09-01T15:39:34.947Z,1.90
2022-09-01T15:41:56.288Z,1.40
2022-09-01T15:44:14.282Z,1.60
2022-09-01T15:46:33.188Z,1.42
2022-09-01T15:48:51.201Z,1.60
2022-09-01T15:51:41.869Z,1.52
2022-09-01T15:54:02.157Z,1.58
2022-09-01T15:56:20.500Z,1.40
2022-09-01T15:58:59.472Z,1.50
2022-09-01T16:01:16.867Z,1.92
2022-09-01T16:03:35.964Z,1.38
2022-09-01T16:05:53.812Z,1.20
2022-09-01T16:08:12.606Z,1.67
2022-09-01T16:10:33.567Z,1.45
2022-09-01T16:12:54.779Z,1.63
2022-09-01T16:15:14.495Z,1.85
2022-09-01T16:17:48.474Z,1.40
2022-09-01T16:20:13.768Z,1.58
2022-09-01T16:22:40.006Z,1.40
2022-09-01T16:25:01.505Z,1.40
2022-09-01T16:27:21.502Z,1.63
2022-09-01T16:29:46.578Z,1.75
2022-09-01T16:32:04.810Z,1.85
2022-09-01T16:34:27.770Z,1.98
2022-09-01T16:36:52.273Z,1.77
2022-09-01T16:39:17.394Z,1.40
2022-09-01T16:41:54.464Z,1.38
2022-09-01T16:44:12.946Z,2.58
2022-09-01T16:46:54.314Z,1.88
2022-09-01T16:49:38.788Z,1.60
2022-09-01T16:52:29.678Z,1.50
2022-09-01T16:54:53.622Z,1.65
2022-09-01T16:57:32.663Z,1.83
2022-09-01T16:59:55.751Z,1.50
2022-09-01T17:02:27.131Z,1.45
2022-09-01T17:04:49.799Z,1.80
2022-09-01T17:09:37.062Z,1.70
2022-09-01T17:12:02.622Z,1.40
2022-09-01T17:14:33.421Z,1.40
2022-09-01T17:16:54.891Z,1.48
2022-09-01T17:19:19.077Z,1.85
2022-09-01T17:21:43.493Z,1.63
2022-09-01T17:24:12.563Z,1.60
2022-09-01T17:26:30.977Z,1.80
2022-09-01T17:28:56.610Z,2.00
2022-09-01T17:31:30.937Z,1.80
2022-09-01T17:34:11.234Z,2.00
2022-09-01T17:36:44.625Z,1.70
2022-09-01T17:39:23.521Z,2.08
2022-09-01T17:41:53.310Z,2.25
2022-09-01T17:44:12.825Z,1.67
2022-09-01T17:46:54.066Z,1.70
2022-09-01T17:49:29.347Z,1.90
2022-09-01T17:51:50.221Z,1.90
2022-09-01T17:54:17.728Z,1.90
2022-09-01T17:56:48.220Z,1.70
2022-09-01T17:59:33.961Z,1.80
2022-09-01T18:02:04.108Z,2.00
2022-09-01T18:04:26.635Z,1.92
2022-09-01T18:07:00.608Z,2.10
2022-09-01T18:09:21.660Z,1.95
2022-09-01T18:11:59.094Z,2.20
2022-09-01T18:14:31.012Z,2.78
2022-09-01T18:17:07.658Z,1.90
2022-09-01T18:19:27.924Z,2.20
2022-09-01T18:21:50.845Z,1.70
2022-09-01T18:24:30.082Z,1.77
2022-09-01T18:26:49.951Z,2.00
2022-09-01T18:29:08.605Z,1.60
2022-09-01T18:31:37.798Z,1.70
2022-09-01T18:34:14.765Z,1.52
2022-09-01T18:36:38.817Z,1.58
2022-09-01T18:39:07.940Z,1.52
2022-09-01T18:41:29.269Z,2.10
2022-09-01T18:43:55.729Z,1.50
2022-09-01T18:46:13.881Z,1.55
2022-09-01T18:48:50.704Z,1.77
2022-09-01T18:51:27.666Z,1.50
2022-09-01T18:53:51.584Z,1.50
2022-09-01T18:56:09.681Z,1.83
2022-09-01T18:58:43.697Z,1.50
2022-09-01T19:01:06.310Z,1.60
2022-09-01T19:03:27.921Z,1.70
2022-09-01T19:05:46.210Z,1.48
2022-09-01T19:08:23.078Z,1.63
2022-09-01T19:10:46.239Z,1.50
2022-09-01T19:13:08.046Z,1.50
2022-09-01T19:15:30.548Z,1.55
2022-09-01T19:17:52.576Z,1.38
2022-09-01T19:20:11.699Z,1.13
2022-09-01T19:22:29.840Z,1.65
2022-09-01T19:24:54.066Z,1.70
2022-09-01T19:27:16.957Z,1.52
2022-09-01T19:29:38.730Z,1.50
2022-09-01T19:32:02.209Z,1.30
2022-09-01T19:34:25.653Z,1.80
2022-09-01T19:36:49.360Z,1.50
2022-09-01T19:39:09.555Z,1.50
2022-09-01T19:41:28.528Z,1.95
2022-09-01T19:43:49.489Z,2.22
2022-09-01T19:46:23.623Z,1.98
2022-09-01T19:49:07.318Z,1.45
2022-09-01T19:51:29.094Z,1.70
2022-09-01T19:53:51.008Z,1.70
2022-09-01T19:56:09.564Z,1.65
2022-09-01T19:58:32.454Z,1.88
2022-09-01T20:00:53.641Z,1.60
2022-09-01T20:03:20.887Z,1.40
2022-09-01T20:06:06.143Z,1.50
2022-09-01T20:08:36.223Z,2.35
2022-09-01T20:11:01.038Z,1.60
2022-09-01T20:13:25.530Z,1.65
2022-09-01T20:15:59.150Z,1.52
2022-09-01T20:18:38.037Z,2.05
2022-09-01T20:20:56.793Z,1.60
2022-09-01T20:23:17.944Z,1.67
2022-09-01T20:25:46.019Z,1.60
2022-09-01T20:28:08.511Z,1.70
2022-09-01T20:30:43.191Z,1.40
2022-09-01T20:33:02.267Z,1.58
2022-09-01T20:35:26.563Z,1.60
2022-09-01T20:37:47.489Z,1.67
2022-09-01T20:40:07.484Z,1.80
2022-09-01T20:42:31.938Z,1.60
2022-09-01T20:44:56.994Z,1.83
2022-09-01T20:47:15.019Z,1.42
2022-09-01T20:49:34.840Z,1.80
2022-09-01T20:52:03.684Z,1.38
2022-09-01T20:54:25.473Z,1.75
2022-09-01T20:56:51.640Z,1.60
2022-09-01T20:59:14.171Z,1.58
2022-09-01T21:01:44.491Z,1.60
2022-09-01T21:04:14.122Z,1.98
2022-09-01T21:06:43.338Z,1.58
2022-09-01T21:09:14.157Z,1.52
2022-09-01T21:11:32.034Z,1.70
2022-09-01T21:14:08.319Z,1.63
2022-09-01T21:16:32.149Z,1.63
2022-09-01T21:19:02.572Z,1.67
2022-09-01T21:21:23.648Z,1.65
2022-09-01T21:23:41.642Z,1.30
2022-09-01T21:26:00.460Z,1.48
2022-09-01T21:28:21.686Z,1.50
2022-09-01T21:30:40.568Z,1.50
2022-09-01T21:32:59.382Z,1.73
2022-09-01T21:35:19.205Z,1.50
2022-09-01T21:37:37.340Z,1.67
2022-09-01T21:39:56.029Z,1.80
2022-09-01T21:42:14.749Z,1.50
2022-09-01T21:44:32.874Z,1.70
2022-09-01T21:46:51.060Z,1.73
2022-09-01T21:49:09.551Z,2.03
2022-09-01T21:51:27.836Z,1.38
2022-09-01T21:53:45.981Z,2.05
2022-09-01T21:56:04.094Z,1.80
2022-09-01T21:58:22.181Z,1.95
2022-09-01T22:00:40.578Z,2.20
2022-09-01T22:02:59.767Z,2.35
2022-09-01T22:05:18.250Z,3.50
2022-09-01T22:07:41.056Z,2.33
2022-09-01T22:09:59.685Z,1.98
2022-09-01T22:12:18.305Z,1.83
2022-09-01T22:14:36.823Z,1.92
2022-09-01T22:16:55.183Z,7.53
2022-09-01T22:19:13.137Z,6.32
2022-09-01T22:21:31.030Z,2.72
2022-09-01T22:23:51.419Z,1.85
2022-09-01T22:26:15.428Z,1.77
2022-09-01T22:28:33.971Z,1.80
2022-09-01T22:30:52.549Z,2.10
2022-09-01T22:33:11.634Z,1.70
2022-09-01T22:35:30.447Z,1.70
2022-09-01T22:37:49.065Z,2.15
2022-09-01T22:40:08.533Z,2.00
2022-09-01T22:42:26.626Z,1.60
2022-09-01T22:44:44.804Z,1.85
2022-09-01T22:47:03.827Z,1.85
2022-09-01T22:49:22.427Z,1.58
2022-09-01T22:51:41.408Z,1.80
2022-09-01T22:53:59.602Z,1.70
2022-09-01T22:56:20.885Z,1.90
2022-09-01T22:58:39.051Z,1.75
2022-09-01T23:00:59.936Z,1.88
2022-09-01T23:03:19.829Z,1.92
2022-09-01T23:05:37.749Z,1.80
2022-09-01T23:07:57.062Z,1.90
2022-09-01T23:10:15.770Z,2.40
2022-09-01T23:12:34.008Z,1.63
2022-09-01T23:14:54.355Z,2.10
2022-09-01T23:17:12.562Z,2.03
2022-09-01T23:19:31.275Z,1.80
2022-09-01T23:21:49.729Z,1.80
2022-09-01T23:24:07.821Z,1.90
2022-09-01T23:26:26.690Z,1.55
2022-09-01T23:28:45.805Z,1.80
2022-09-01T23:31:04.182Z,1.88
2022-09-01T23:33:23.017Z,1.65
2022-09-01T23:35:49.224Z,1.75
2022-09-01T23:38:07.197Z,1.67
2022-09-01T23:40:25.552Z,1.88
2022-09-01T23:42:43.598Z,2.05
2022-09-01T23:45:01.591Z,1.77
2022-09-01T23:47:19.893Z,1.98
2022-09-01T23:49:38.495Z,1.75
2022-09-01T23:51:56.713Z,1.83
2022-09-01T23:54:15.304Z,1.83
2022-09-01T23:56:33.248Z,1.92
2022-09-01T23:58:51.576Z,1.80
